Etusivu
METAR-TAF:

METAR-TAF

Lentoasemat :

Öljynporauslautta

Euro, Alankomaat

Leveyspiiri: 51-59-52N, Pituuspiiri: 3-16-30E, korkeus merenpinnasta: 18 m

Tämänhetkinen sää

Tämä raportti tehtiin 43 minuuttia sitten, kello 15.25 UTC
Tuuli 7 kn etelästä/lounaasta
Lämpötila 9°C
Kosteus 87%
Ilmanpaine 1033 hPa
Näkyvyys 10 km tai enemmän

METAR: EHSA 211525Z AUTO 20007KT 9999 ///////// 09/07 Q1033 W06/H5

Aika: 17:08 (16:08 UTC)


TAF: puuttuu

Säähavainnot ja -ennusteet yli 4000 lentoasemalta (METAR- ja TAF-raportit).

Käytössä olevat sääasemat on merkitty karttaan keltaisilla ja punaisilla pisteillä.

Aseta hiiri pisteen päälle nähdäksesi sääaseman nimen.

Klikkaa sitten nähdäksesi säähavainnot ja -ennusteet.

Kartan vaihtaminen: klikkaa mustalla rastilla varustettuja vihreitä pisteitä, niin voit zoomata sisään; viivalla varustettua vihreää pistettä, niin voit zoomata ulos tai vihreitä nuolia, niin pääset viereisille kartoille.


METAR-TAF: